TimeEDT,TemperatureF,Dew PointF,Humidity,Sea Level PressureIn,VisibilityMPH,Wind Direction,Wind SpeedMPH,Gust SpeedMPH,PrecipitationIn,Events,Conditions,WindDirDegrees,DateUTC
12:15 AM,57.2,57.2,100,30.09,10.0,Calm,Calm,-,N/A,,Clear,0,2013-09-20 04:15:00
12:35 AM,57.2,57.2,100,30.10,10.0,Calm,Calm,-,N/A,,Clear,0,2013-09-20 04:35:00
12:55 AM,55.4,55.4,100,30.10,10.0,Calm,Calm,-,N/A,,Clear,0,2013-09-20 04:55:00
1:15 AM,57.2,57.2,100,30.11,10.0,Calm,Calm,-,N/A,,Mostly Cloudy,0,2013-09-20 05:15:00
1:35 AM,55.4,55.4,100,30.11,10.0,Calm,Calm,-,N/A,,Partly Cloudy,0,2013-09-20 05:35:00
1:55 AM,55.4,55.4,100,30.11,10.0,Calm,Calm,-,N/A,,Clear,0,2013-09-20 05:55:00
2:15 AM,53.6,53.6,100,30.10,10.0,Calm,Calm,-,N/A,,Clear,0,2013-09-20 06:15:00
2:35 AM,53.6,53.6,100,30.10,2.5,Calm,Calm,-,N/A,,Clear,0,2013-09-20 06:35:00
2:55 AM,53.6,53.6,100,30.10,10.0,Calm,Calm,-,N/A,,Clear,0,2013-09-20 06:55:00
3:15 AM,51.8,51.8,100,30.09,9.0,Calm,Calm,-,N/A,,Clear,0,2013-09-20 07:15:00
3:35 AM,53.6,51.8,94,30.09,7.0,Calm,Calm,-,N/A,,Clear,0,2013-09-20 07:35:00
3:55 AM,51.8,51.8,100,30.09,10.0,Calm,Calm,-,N/A,,Clear,0,2013-09-20 07:55:00
4:15 AM,51.8,51.8,100,30.09,10.0,Calm,Calm,-,N/A,,Clear,0,2013-09-20 08:15:00
4:35 AM,51.8,51.8,100,30.09,8.0,Calm,Calm,-,N/A,,Partly Cloudy,0,2013-09-20 08:35:00
4:55 AM,51.8,51.8,100,30.09,10.0,Calm,Calm,-,N/A,,Clear,0,2013-09-20 08:55:00
5:15 AM,51.8,51.8,100,30.09,2.5,Calm,Calm,-,N/A,,Clear,0,2013-09-20 09:15:00
5:35 AM,51.8,51.8,100,30.09,10.0,Calm,Calm,-,N/A,,Clear,0,2013-09-20 09:35:00
5:55 AM,51.8,51.8,100,30.09,10.0,Calm,Calm,-,N/A,,Clear,0,2013-09-20 09:55:00
6:15 AM,51.8,50.0,94,30.09,10.0,Calm,Calm,-,N/A,,Clear,0,2013-09-20 10:15:00
8:55 AM,60.8,57.2,88,30.11,10.0,Calm,Calm,-,N/A,,Clear,0,2013-09-20 12:55:00
10:45 AM,71.6,60.8,69,30.08,10.0,South,5.8,-,N/A,,Clear,180,2013-09-20 14:45:00
11:55 AM,77.0,60.8,57,30.07,10.0,SSE,9.2,-,N/A,,Clear,160,2013-09-20 15:55:00
12:45 PM,75.2,60.8,61,30.06,10.0,South,6.9,16.1,N/A,,Overcast,180,2013-09-20 16:45:00
1:45 PM,78.8,62.6,57,30.05,10.0,South,9.2,-,N/A,,Overcast,170,2013-09-20 17:45:00
2:45 PM,78.8,62.6,57,30.03,10.0,SSW,8.1,-,N/A,,Mostly Cloudy,200,2013-09-20 18:45:00
3:55 PM,77.0,62.6,61,30.01,10.0,ESE,6.9,-,N/A,,Overcast,120,2013-09-20 19:55:00
4:15 PM,80.6,60.8,51,30.00,10.0,SSE,8.1,-,N/A,,Scattered Clouds,160,2013-09-20 20:15:00
4:35 PM,78.8,62.6,57,29.99,10.0,South,8.1,-,N/A,,Clear,170,2013-09-20 20:35:00
4:55 PM,78.8,62.6,57,29.99,10.0,SSE,9.2,-,N/A,,Clear,160,2013-09-20 20:55:00
5:15 PM,78.8,60.8,54,29.98,10.0,SSE,8.1,-,N/A,,Clear,150,2013-09-20 21:15:00
5:35 PM,78.8,62.6,57,29.97,10.0,SSE,10.4,-,N/A,,Mostly Cloudy,150,2013-09-20 21:35:00
5:55 PM,77.0,62.6,61,29.97,10.0,SSE,11.5,-,N/A,,Partly Cloudy,160,2013-09-20 21:55:00
6:15 PM,77.0,62.6,61,29.97,10.0,South,6.9,-,N/A,,Clear,170,2013-09-20 22:15:00
6:35 PM,75.2,62.6,65,29.97,10.0,SSE,8.1,-,N/A,,Clear,150,2013-09-20 22:35:00
6:55 PM,73.4,62.6,69,29.97,10.0,SSE,5.8,-,N/A,,Clear,150,2013-09-20 22:55:00
7:15 PM,69.8,62.6,78,29.97,10.0,SE,5.8,-,N/A,,Clear,140,2013-09-20 23:15:00
7:35 PM,69.8,62.6,78,29.97,10.0,SSE,4.6,-,N/A,,Clear,150,2013-09-20 23:35:00
7:55 PM,69.8,62.6,78,29.98,10.0,South,5.8,-,N/A,,Clear,170,2013-09-20 23:55:00
8:15 PM,69.8,62.6,78,29.98,10.0,SE,8.1,-,N/A,,Mostly Cloudy,140,2013-09-21 00:15:00
8:35 PM,68.0,62.6,83,29.98,10.0,SSE,5.8,-,N/A,,Overcast,150,2013-09-21 00:35:00
8:55 PM,68.0,62.6,83,29.99,10.0,SSE,6.9,-,N/A,,Overcast,150,2013-09-21 00:55:00
9:15 PM,68.0,62.6,83,30.00,10.0,SSE,5.8,-,N/A,,Mostly Cloudy,160,2013-09-21 01:15:00
9:35 PM,66.2,62.6,88,29.99,10.0,SSE,4.6,-,N/A,,Partly Cloudy,160,2013-09-21 01:35:00
9:55 PM,66.2,62.6,88,29.99,10.0,SSE,5.8,-,N/A,,Scattered Clouds,150,2013-09-21 01:55:00
10:15 PM,66.2,62.6,88,30.00,10.0,SSE,6.9,-,N/A,,Scattered Clouds,150,2013-09-21 02:15:00
10:35 PM,64.4,62.6,94,29.99,10.0,SSE,8.1,-,N/A,,Partly Cloudy,150,2013-09-21 02:35:00
10:55 PM,64.4,62.6,94,29.99,10.0,SSE,6.9,-,N/A,,Clear,150,2013-09-21 02:55:00
11:15 PM,64.4,62.6,94,29.99,10.0,SSE,5.8,-,N/A,,Clear,150,2013-09-21 03:15:00
11:35 PM,64.4,62.6,94,29.98,10.0,South,4.6,-,N/A,,Partly Cloudy,170,2013-09-21 03:35:00
11:55 PM,64.4,60.8,88,29.98,10.0,SSE,5.8,-,N/A,,Partly Cloudy,160,2013-09-21 03:55:00